4XARY LLHZ-LLHZ

Flight info

Callsign 4XARY
Flight time 0h 2m
Altitude 800
Route CIRCUITS
Aircraft C152/L-VD/A

Departure

Time 2026-04-24 12:16
Airport Herzliya Airport (LLHZ)

Arrival

Time 2026-04-24 12:18
Airport Herzliya Airport (LLHZ)
Time Latitude Longitude Altitude Speed Heading
2026-04-24 12:05 32.17939 34.83581 108 ft 0 kts 20°
2026-04-24 12:12 32.17940 34.83582 108 ft 2 kts 19°
2026-04-24 12:12 32.17946 34.83620 110 ft 5 kts 108°
2026-04-24 12:12 32.17928 34.83682 113 ft 11 kts 108°
2026-04-24 12:13 32.17907 34.83755 117 ft 9 kts 108°
2026-04-24 12:13 32.17887 34.83819 117 ft 7 kts 110°
2026-04-24 12:13 32.17880 34.83849 120 ft 0 kts 86°
2026-04-24 12:13 32.17880 34.83851 121 ft 3 kts 79°
2026-04-24 12:14 32.17913 34.83856 122 ft 8 kts 301°
2026-04-24 12:14 32.17920 34.83831 122 ft 0 kts 290°
2026-04-24 12:15 32.17981 34.83626 110 ft 52 kts 289°
2026-04-24 12:15 32.18126 34.83138 172 ft 67 kts 288°
2026-04-24 12:15 32.18306 34.82667 314 ft 60 kts 323°
2026-04-24 12:15 32.18712 34.82766 391 ft 69 kts 35°
2026-04-24 12:16 32.19185 34.82938 448 ft 75 kts 11°
2026-04-24 12:16 32.19681 34.83085 573 ft 73 kts 15°
2026-04-24 12:16 32.20011 34.83498 678 ft 74 kts 92°
2026-04-24 12:16 32.19718 34.84018 749 ft 77 kts 128°
2026-04-24 12:17 32.19399 34.84547 827 ft 80 kts 122°
2026-04-24 12:17 32.19136 34.85144 877 ft 84 kts 119°
2026-04-24 12:17 32.18746 34.85620 879 ft 84 kts 172°
2026-04-24 12:17 32.18168 34.85427 722 ft 88 kts 202°
2026-04-24 12:18 32.17702 34.85087 451 ft 71 kts 244°
2026-04-24 12:18 32.17699 34.84573 303 ft 60 kts 289°
2026-04-24 12:18 32.17832 34.84120 198 ft 56 kts 290°
2026-04-24 12:18 32.17951 34.83726 115 ft 47 kts 289°
2026-04-24 12:19 32.18073 34.83305 136 ft 63 kts 287°
2026-04-24 12:19 32.18190 34.82785 217 ft 66 kts 283°
2026-04-24 12:19 32.18519 34.82562 303 ft 67 kts 22°
2026-04-24 12:19 32.18961 34.82766 399 ft 66 kts 19°
2026-04-24 12:20 32.19427 34.82982 549 ft 68 kts 26°
2026-04-24 12:20 32.19707 34.83406 680 ft 77 kts 95°
2026-04-24 12:20 32.19496 34.84004 803 ft 80 kts 112°
2026-04-24 12:20 32.19267 34.84653 846 ft 87 kts 113°
2026-04-24 12:21 32.19036 34.85295 854 ft 85 kts 113°
2026-04-24 12:21 32.18583 34.85666 825 ft 86 kts 181°
2026-04-24 12:21 32.18005 34.85408 627 ft 91 kts 210°
2026-04-24 12:21 32.17704 34.84856 418 ft 76 kts 260°
2026-04-24 12:22 32.17783 34.84283 255 ft 69 kts 289°
2026-04-24 12:22 32.17941 34.83759 123 ft 64 kts 290°
2026-04-24 12:22 32.18079 34.83292 129 ft 66 kts 286°
2026-04-24 12:22 32.18211 34.82766 304 ft 68 kts 285°
2026-04-24 12:23 32.18600 34.82620 434 ft 74 kts 16°
2026-04-24 12:23 32.19094 34.82805 576 ft 78 kts 14°
2026-04-24 12:23 32.19538 34.83135 725 ft 76 kts 74°
2026-04-24 12:23 32.19419 34.83754 859 ft 77 kts 108°
2026-04-24 12:24 32.19264 34.84405 885 ft 83 kts 106°
2026-04-24 12:24 32.19069 34.85039 877 ft 82 kts 125°
2026-04-24 12:24 32.18577 34.85372 807 ft 87 kts 177°
2026-04-24 12:24 32.18199 34.85287 686 ft 73 kts 199°
2026-04-24 12:25 32.17779 34.85113 446 ft 61 kts 225°
2026-04-24 12:25 32.17674 34.84653 310 ft 59 kts 281°
2026-04-24 12:25 32.17801 34.84219 210 ft 51 kts 289°
2026-04-24 12:25 32.17911 34.83849 134 ft 49 kts 289°
2026-04-24 12:26 32.18018 34.83498 105 ft 39 kts 290°
2026-04-24 12:26 32.18094 34.83241 97 ft 28 kts 288°
2026-04-24 12:26 32.18140 34.83083 95 ft 6 kts 273°
2026-04-24 12:26 32.18121 34.83064 98 ft 1 kts 195°
2026-04-24 12:27 32.18114 34.83064 96 ft 7 kts 168°
2026-04-24 12:27 32.18086 34.83151 98 ft 22 kts 109°
2026-04-24 12:27 32.18026 34.83351 102 ft 23 kts 108°
2026-04-24 12:28 32.17976 34.83522 107 ft 24 kts 110°
2026-04-24 12:28 32.17928 34.83683 113 ft 17 kts 108°
2026-04-24 12:28 32.17897 34.83786 116 ft 11 kts 108°
2026-04-24 12:28 32.17881 34.83844 118 ft 0 kts 94°
2026-04-24 12:29 32.17881 34.83849 118 ft 0 kts 94°
2026-04-24 12:29 32.17880 34.83849 118 ft 0 kts 94°
2026-04-24 12:30 32.17900 34.83861 118 ft 0 kts 359°
2026-04-24 12:30 32.17908 34.83858 119 ft 7 kts 318°
2026-04-24 12:30 32.17966 34.83671 112 ft 48 kts 290°
2026-04-24 12:31 32.18066 34.83293 192 ft 49 kts 287°
2026-04-24 12:31 32.18163 34.82896 259 ft 51 kts 282°
2026-04-24 12:31 32.18365 34.82615 346 ft 51 kts 354°
2026-04-24 12:31 32.18744 34.82687 388 ft 56 kts 10°
2026-04-24 12:32 32.19130 34.82783 452 ft 54 kts 17°
2026-04-24 12:32 32.19489 34.82914 513 ft 59 kts 20°
2026-04-24 12:32 32.19667 34.83299 594 ft 56 kts 104°
2026-04-24 12:32 32.19486 34.83734 641 ft 59 kts 120°
2026-04-24 12:33 32.19287 34.84169 697 ft 62 kts 118°
2026-04-24 12:33 32.19090 34.84640 776 ft 70 kts 115°
2026-04-24 12:33 32.18856 34.85210 839 ft 80 kts 123°
2026-04-24 12:33 32.18454 34.85690 891 ft 85 kts 154°
2026-04-24 12:34 32.17928 34.85613 665 ft 78 kts 199°
2026-04-24 12:34 32.17584 34.85226 537 ft 67 kts 258°
2026-04-24 12:34 32.17640 34.84712 391 ft 62 kts 281°
2026-04-24 12:34 32.17784 34.84252 230 ft 62 kts 288°
2026-04-24 12:35 32.17931 34.83776 134 ft 58 kts 291°
2026-04-24 12:35 32.18052 34.83379 116 ft 52 kts 289°
2026-04-24 12:35 32.18155 34.82927 235 ft 64 kts 279°
2026-04-24 12:35 32.18394 34.82595 414 ft 64 kts
2026-04-24 12:36 32.18884 34.82702 487 ft 79 kts
2026-04-24 12:36 32.19413 34.82864 611 ft 83 kts 35°
2026-04-24 12:36 32.19543 34.83470 758 ft 81 kts 114°
2026-04-24 12:36 32.19247 34.84076 799 ft 91 kts 124°
2026-04-24 12:37 32.18892 34.84677 871 ft 90 kts 127°
2026-04-24 12:37 32.18442 34.85229 757 ft 87 kts 154°
2026-04-24 12:37 32.17899 34.85252 558 ft 76 kts 199°
2026-04-24 12:37 32.17621 34.84822 482 ft 63 kts 264°
2026-04-24 12:38 32.17746 34.84355 324 ft 60 kts 295°
2026-04-24 12:38 32.17899 34.83879 157 ft 61 kts 288°
2026-04-24 12:38 32.18035 34.83435 123 ft 56 kts 287°
2026-04-24 12:39 32.18885 34.82654 468 ft 77 kts 11°
2026-04-24 12:39 32.19402 34.82823 612 ft 78 kts 28°
2026-04-24 12:39 32.19856 34.83154 791 ft 77 kts 31°
2026-04-24 12:40 32.20315 34.83486 977 ft 73 kts 27°
2026-04-24 12:40 32.20818 34.83794 1030 ft 85 kts 26°
2026-04-24 12:40 32.21350 34.84085 1126 ft 88 kts 24°
2026-04-24 12:40 32.21912 34.84432 1216 ft 81 kts 26°
2026-04-24 12:41 32.22458 34.84760 1247 ft 87 kts 26°
2026-04-24 12:41 32.23028 34.85038 1379 ft 84 kts 13°
2026-04-24 12:41 32.23638 34.85252 1342 ft 98 kts 17°
2026-04-24 12:41 32.24291 34.85490 1349 ft 97 kts 18°
2026-04-24 12:42 32.24932 34.85778 1294 ft 100 kts 20°
2026-04-24 12:42 32.25519 34.86050 1510 ft 80 kts 19°
2026-04-24 12:42 32.26008 34.86255 1765 ft 70 kts 17°
2026-04-24 12:42 32.26479 34.86427 1896 ft 74 kts 17°
2026-04-24 12:43 32.26982 34.86656 2006 ft 80 kts 20°
2026-04-24 12:43 32.27512 34.86886 2116 ft 83 kts 20°
2026-04-24 12:43 32.28050 34.87105 2248 ft 81 kts 14°
2026-04-24 12:43 32.28608 34.87230 2324 ft 86 kts
2026-04-24 12:44 32.29257 34.87367 2233 ft 101 kts
2026-04-24 12:44 32.29970 34.87460 2200 ft 95 kts 349°
2026-04-24 12:44 32.30415 34.86953 2222 ft 91 kts 279°
2026-04-24 12:44 32.30116 34.86326 2116 ft 94 kts 207°
2026-04-24 12:45 32.29480 34.86239 2097 ft 91 kts 182°
2026-04-24 12:45 32.28847 34.86271 2098 ft 91 kts 176°
2026-04-24 12:45 32.28214 34.86336 2076 ft 92 kts 176°
2026-04-24 12:45 32.27557 34.86399 2029 ft 98 kts 177°
2026-04-24 12:46 32.26882 34.86430 2019 ft 97 kts 181°
2026-04-24 12:46 32.26216 34.86478 1998 ft 96 kts 161°
2026-04-24 12:46 32.25845 34.87104 2008 ft 98 kts 95°
2026-04-24 12:46 32.25923 34.87894 1930 ft 99 kts 81°
2026-04-24 12:47 32.26070 34.88621 2028 ft 85 kts 45°
2026-04-24 12:47 32.26592 34.88628 2124 ft 84 kts 343°
2026-04-24 12:47 32.27163 34.88424 2187 ft 85 kts 341°
2026-04-24 12:47 32.27708 34.88203 2184 ft 88 kts 336°
2026-04-24 12:48 32.28296 34.87960 2214 ft 90 kts 352°
2026-04-24 12:48 32.28917 34.87925 2261 ft 90 kts 356°
2026-04-24 12:48 32.29548 34.87871 2299 ft 89 kts 353°
2026-04-24 12:48 32.30170 34.87813 2320 ft 95 kts 354°
2026-04-24 12:49 32.30853 34.87750 2248 ft 99 kts 355°
2026-04-24 12:49 32.31525 34.87729 2310 ft 91 kts 356°
2026-04-24 12:49 32.32013 34.87283 2268 ft 93 kts 291°
2026-04-24 12:49 32.31970 34.86542 2269 ft 93 kts 236°
2026-04-24 12:50 32.31380 34.86451 2262 ft 91 kts 168°
2026-04-24 12:50 32.30750 34.86571 2273 ft 93 kts 178°
2026-04-24 12:50 32.30094 34.86614 2260 ft 95 kts 179°
2026-04-24 12:50 32.29425 34.86637 2265 ft 96 kts 180°
2026-04-24 12:51 32.28770 34.86641 2251 ft 99 kts 181°
2026-04-24 12:51 32.28074 34.86629 2219 ft 100 kts 185°
2026-04-24 12:51 32.27388 34.86541 2200 ft 99 kts 189°
2026-04-24 12:51 32.26673 34.86403 2040 ft 104 kts 190°
2026-04-24 12:52 32.26000 34.86239 2039 ft 95 kts 221°
2026-04-24 12:52 32.26081 34.85545 2047 ft 92 kts 306°
2026-04-24 12:52 32.26617 34.85142 2055 ft 94 kts 346°
2026-04-24 12:52 32.27251 34.85097 2088 ft 94 kts 356°
2026-04-24 12:53 32.27929 34.85050 2073 ft 97 kts 355°
2026-04-24 12:53 32.28604 34.84995 2089 ft 97 kts 354°
2026-04-24 12:53 32.29248 34.85102 2126 ft 95 kts 20°
2026-04-24 12:53 32.29880 34.85431 2072 ft 100 kts 22°
2026-04-24 12:54 32.30517 34.85738 2065 ft 97 kts 18°
2026-04-24 12:54 32.31174 34.86030 1950 ft 105 kts 21°
2026-04-24 12:54 32.31820 34.86378 1959 ft 99 kts 25°
2026-04-24 12:54 32.32446 34.86715 1960 ft 96 kts 12°
2026-04-24 12:55 32.32889 34.86305 1829 ft 102 kts 259°
2026-04-24 12:55 32.32368 34.85792 1733 ft 103 kts 194°
2026-04-24 12:55 32.31691 34.85638 1771 ft 97 kts 191°
2026-04-24 12:55 32.31032 34.85642 1802 ft 94 kts 166°
2026-04-24 12:56 32.30403 34.85946 1697 ft 101 kts 153°
2026-04-24 12:56 32.29773 34.86312 1640 ft 101 kts 156°
2026-04-24 12:56 32.29101 34.86625 1538 ft 104 kts 161°
2026-04-24 12:56 32.28407 34.86912 1370 ft 107 kts 163°
2026-04-24 12:57 32.27690 34.87162 1257 ft 107 kts 166°
2026-04-24 12:57 32.26961 34.87366 1099 ft 108 kts 171°
2026-04-24 12:57 32.26229 34.87492 1000 ft 106 kts 171°
2026-04-24 12:57 32.25507 34.87656 891 ft 107 kts 172°
2026-04-24 12:58 32.24837 34.87770 1070 ft 90 kts 173°
2026-04-24 12:58 32.24212 34.87874 1153 ft 91 kts 173°
2026-04-24 12:58 32.23538 34.88030 1095 ft 102 kts 171°
2026-04-24 12:58 32.22857 34.88175 1142 ft 100 kts 174°
2026-04-24 12:59 32.22165 34.88209 1161 ft 99 kts 182°
2026-04-24 12:59 32.21476 34.88151 1101 ft 106 kts 190°
2026-04-24 12:59 32.20743 34.87977 996 ft 110 kts 194°
2026-04-24 12:59 32.20006 34.87780 985 ft 102 kts 197°
2026-04-24 13:00 32.19351 34.87505 1027 ft 100 kts 205°
2026-04-24 13:00 32.18754 34.87101 1052 ft 100 kts 218°
2026-04-24 13:00 32.18241 34.86616 1184 ft 92 kts 221°
2026-04-24 13:00 32.17853 34.85953 906 ft 100 kts 243°
2026-04-24 13:01 32.17645 34.85376 651 ft 66 kts 258°
2026-04-24 13:01 32.17640 34.84845 475 ft 66 kts 282°
2026-04-24 13:01 32.17761 34.84365 290 ft 54 kts 289°
2026-04-24 13:01 32.17877 34.83974 166 ft 47 kts 285°
2026-04-24 13:02 32.17978 34.83635 110 ft 39 kts 289°
2026-04-24 13:02 32.18054 34.83379 101 ft 23 kts 290°
2026-04-24 13:02 32.18087 34.83254 97 ft 23 kts 289°
2026-04-24 13:02 32.18140 34.83088 95 ft 10 kts 282°
2026-04-24 13:03 32.18122 34.83063 96 ft 3 kts 202°
2026-04-24 13:03 32.18095 34.83121 97 ft 11 kts 109°
2026-04-24 13:03 32.18069 34.83204 99 ft 13 kts 108°
2026-04-24 13:03 32.18048 34.83246 100 ft 1 kts 202°
2026-04-24 13:04 32.18042 34.83243 100 ft 1 kts 182°
2026-04-24 13:04 32.18038 34.83257 100 ft 0 kts 47°
2026-04-24 13:04 32.18039 34.83258 100 ft 0 kts 32°
2026-04-24 13:07 32.18044 34.83289 101 ft 8 kts 99°
2026-04-24 13:07 32.18019 34.83377 103 ft 18 kts 108°
2026-04-24 13:08 32.17976 34.83525 107 ft 17 kts 110°
2026-04-24 13:08 32.17937 34.83654 112 ft 15 kts 109°
2026-04-24 13:08 32.17906 34.83755 117 ft 11 kts 108°
2026-04-24 13:09 32.17883 34.83839 117 ft 0 kts 106°
2026-04-24 13:09 32.17884 34.83852 120 ft 1 kts 57°
2026-04-24 13:09 32.17897 34.83861 119 ft 0 kts
2026-04-24 13:09 32.17900 34.83861 119 ft 4 kts 346°
2026-04-24 13:10 32.17938 34.83770 119 ft 17 kts 287°
2026-04-24 13:10 32.17967 34.83671 113 ft 27 kts 288°
2026-04-24 13:10 32.18129 34.83091 145 ft 71 kts 288°
2026-04-24 13:10 32.18307 34.82541 299 ft 72 kts 305°
2026-04-24 13:11 32.18716 34.82543 408 ft 76 kts 30°
2026-04-24 13:11 32.19206 34.82791 563 ft 74 kts 16°
2026-04-24 13:11 32.19521 34.82965 612 ft 80 kts 47°
2026-04-24 13:11 32.19566 34.83562 790 ft 76 kts 111°
2026-04-24 13:12 32.19287 34.84128 916 ft 78 kts 124°
2026-04-24 13:12 32.18988 34.84723 951 ft 89 kts 121°
2026-04-24 13:12 32.18622 34.85289 926 ft 79 kts 165°
2026-04-24 13:12 32.18091 34.85243 621 ft 83 kts 193°
2026-04-24 13:13 32.17699 34.84948 503 ft 66 kts 257°
2026-04-24 13:13 32.17737 34.84410 324 ft 66 kts 284°
2026-04-24 13:13 32.17897 34.83895 154 ft 65 kts 288°
2026-04-24 13:13 32.18028 34.83444 116 ft 55 kts 287°
2026-04-24 13:14 32.18159 34.82990 244 ft 62 kts 287°
2026-04-24 13:14 32.18423 34.82616 355 ft 67 kts 345°
2026-04-24 13:14 32.18899 34.82695 523 ft 66 kts 11°
2026-04-24 13:14 32.19338 34.82858 684 ft 65 kts 49°
2026-04-24 13:15 32.19293 34.83396 734 ft 77 kts 107°
2026-04-24 13:15 32.19130 34.84029 817 ft 83 kts 106°
2026-04-24 13:15 32.18950 34.84699 820 ft 87 kts 111°
2026-04-24 13:15 32.18683 34.85274 918 ft 80 kts 154°
2026-04-24 13:16 32.18161 34.85243 688 ft 81 kts 194°
2026-04-24 13:16 32.17758 34.84900 473 ft 72 kts 252°
2026-04-24 13:16 32.17752 34.84350 281 ft 71 kts 285°
2026-04-24 13:16 32.17917 34.83835 137 ft 61 kts 290°
2026-04-24 13:17 32.18053 34.83375 140 ft 64 kts 283°
2026-04-24 13:17 32.18192 34.82857 271 ft 66 kts 288°
2026-04-24 13:17 32.18578 34.82697 398 ft 70 kts
2026-04-24 13:17 32.19057 34.82724 535 ft 73 kts
2026-04-24 13:18 32.19475 34.82979 697 ft 70 kts 57°
2026-04-24 13:18 32.19462 34.83555 809 ft 78 kts 115°
2026-04-24 13:18 32.19268 34.84164 902 ft 85 kts 109°
2026-04-24 13:18 32.19083 34.84859 917 ft 90 kts 106°
2026-04-24 13:19 32.18721 34.85320 892 ft 73 kts 185°
2026-04-24 13:19 32.18231 34.85247 650 ft 75 kts 192°
2026-04-24 13:19 32.17788 34.85006 481 ft 62 kts 242°
2026-04-24 13:19 32.17703 34.84504 332 ft 61 kts 272°
2026-04-24 13:20 32.17841 34.84014 197 ft 64 kts 297°
2026-04-24 13:20 32.18000 34.83551 107 ft 56 kts 289°
2026-04-24 13:20 32.18114 34.83108 213 ft 57 kts 279°
2026-04-24 13:20 32.18227 34.82655 334 ft 58 kts 337°
2026-04-24 13:21 32.18590 34.82623 467 ft 62 kts 349°
2026-04-24 13:21 32.19057 34.82664 547 ft 75 kts 23°
2026-04-24 13:21 32.19339 34.83145 645 ft 80 kts 53°
2026-04-24 13:21 32.19417 34.83737 755 ft 82 kts 121°
2026-04-24 13:22 32.19139 34.84341 839 ft 86 kts 115°
2026-04-24 13:22 32.18891 34.84993 928 ft 87 kts 118°
2026-04-24 13:22 32.18431 34.85397 876 ft 80 kts 181°
2026-04-24 13:22 32.17886 34.85236 619 ft 76 kts 211°
2026-04-24 13:23 32.17633 34.84777 485 ft 67 kts 265°
2026-04-24 13:23 32.17779 34.84247 265 ft 69 kts 292°
2026-04-24 13:23 32.17948 34.83727 120 ft 64 kts 293°
2026-04-24 13:23 32.18055 34.83365 101 ft 22 kts 289°
2026-04-24 13:24 32.18079 34.83285 98 ft 16 kts 289°
2026-04-24 13:24 32.18125 34.83139 95 ft 21 kts 289°
2026-04-24 13:24 32.18118 34.83063 96 ft 6 kts 180°
2026-04-24 13:24 32.18100 34.83095 97 ft 4 kts 109°
2026-04-24 13:25 32.18093 34.83120 97 ft 2 kts 110°
2026-04-24 13:25 32.18081 34.83123 98 ft 2 kts 201°